Time;durP1;ratioP1;P1;durP2;ratioP2;P2;SDS_P1;SDS_P2;PMS_P1;PMS_P2;Temp;Humidity;BMP_temperature;BMP_pressure;BME280_temperature;BME280_humidity;BME280_pressure;Samples;Min_cycle;Max_cycle;Signal;HPM_P1;HPM_P2
2023/10/28 00:01:18;;;;;;;0.90;0.77;;;;;;;-143.84;64.33;45054.78;5089779;28;20486;-59
2023/10/28 00:03:45;;;;;;;0.90;0.70;;;;;;;-143.84;63.94;45062.41;5089792;28;20432;-60
2023/10/28 00:06:13;;;;;;;0.90;0.60;;;;;;;-143.84;63.94;45064.31;5089622;28;20974;-59
2023/10/28 00:08:43;;;;;;;0.90;0.57;;;;;;;-143.84;63.50;45085.25;5089728;28;20439;-59
2023/10/28 00:11:10;;;;;;;0.80;0.43;;;;;;;-143.84;63.67;45045.25;5089793;28;20444;-59
2023/10/28 00:13:37;;;;;;;1.57;1.00;;;;;;;-143.84;63.09;45060.50;5089749;28;20483;-59
2023/10/28 00:16:05;;;;;;;0.90;0.80;;;;;;;-143.84;62.64;45050.97;5089830;28;21030;-59
2023/10/28 00:18:33;;;;;;;0.80;0.50;;;;;;;-143.84;61.97;45056.69;5089752;28;20493;-60
2023/10/28 00:21:00;;;;;;;0.80;0.50;;;;;;;-143.84;61.32;45050.97;5089815;28;20436;-60
2023/10/28 00:23:31;;;;;;;1.50;0.70;;;;;;;-143.84;60.35;45073.81;5089785;28;20458;-60
2023/10/28 00:26:03;;;;;;;0.90;0.67;;;;;;;-143.84;59.92;45030.03;5089819;28;20523;-60
2023/10/28 00:28:32;;;;;;;0.87;0.50;;;;;;;-143.84;58.64;45041.44;5089809;28;20493;-60
2023/10/28 00:31:01;;;;;;;1.20;0.50;;;;;;;-143.84;57.94;45054.78;5089698;28;20458;-59
2023/10/28 00:33:28;;;;;;;0.80;0.40;;;;;;;-143.84;57.03;45028.13;5089316;28;21017;-59
2023/10/28 00:35:55;;;;;;;0.80;0.50;;;;;;;-143.84;56.29;45064.31;5089399;28;20479;-60
2023/10/28 00:38:23;;;;;;;1.77;0.70;;;;;;;-143.84;55.56;45066.22;5089681;28;20439;-59
2023/10/28 00:40:50;;;;;;;1.30;0.90;;;;;;;-143.84;55.14;45045.25;5089511;28;20526;-59
2023/10/28 00:43:24;;;;;;;1.67;1.07;;;;;;;-143.84;53.92;45062.41;5089292;28;20444;-60
2023/10/28 00:45:54;;;;;;;1.00;0.70;;;;;;;-143.84;53.78;45071.91;5089543;28;20452;-60
2023/10/28 00:48:21;;;;;;;2.00;0.70;;;;;;;-143.84;53.21;45077.63;5089245;28;20531;-60
2023/10/28 00:50:49;;;;;;;1.30;1.13;;;;;;;-143.84;53.07;45070.00;5088679;28;20439;-59
2023/10/28 00:53:18;;;;;;;0.90;0.63;;;;;;;-143.84;52.58;45035.75;5089323;28;20491;-60
2023/10/28 00:55:48;;;;;;;1.70;1.20;;;;;;;-143.84;51.96;45031.94;5089189;28;20509;-60
2023/10/28 00:58:17;;;;;;;0.83;0.47;;;;;;;-143.84;51.33;45050.97;5089387;28;21153;-59
2023/10/28 01:00:45;;;;;;;0.90;0.60;;;;;;;-143.84;50.89;45054.78;5089303;28;20442;-60
2023/10/28 01:03:13;;;;;;;0.80;0.50;;;;;;;-143.84;50.72;45085.25;5088865;28;21034;-59
2023/10/28 01:05:40;;;;;;;1.43;1.03;;;;;;;-143.84;49.57;45064.31;5089089;28;20593;-59
2023/10/28 01:08:09;;;;;;;0.90;0.53;;;;;;;-143.84;49.18;45039.53;5088905;28;20531;-59
2023/10/28 01:10:38;;;;;;;0.90;0.57;;;;;;;-143.84;48.77;45056.69;5089023;28;20824;-59
2023/10/28 01:13:06;;;;;;;1.67;0.60;;;;;;;-143.84;48.29;45028.13;5088986;28;20985;-59
2023/10/28 01:15:33;;;;;;;0.90;0.60;;;;;;;-143.84;48.12;45045.25;5088867;28;20447;-59
2023/10/28 01:18:01;;;;;;;1.00;0.40;;;;;;;-143.84;48.08;45045.25;5088674;28;20444;-60
2023/10/28 01:20:29;;;;;;;1.93;0.60;;;;;;;-143.84;47.51;45056.69;5088682;28;20440;-59
2023/10/28 01:22:58;;;;;;;0.80;0.50;;;;;;;-143.84;47.50;45050.97;5088691;28;20467;-60
2023/10/28 01:25:26;;;;;;;0.80;0.40;;;;;;;-143.84;47.43;45050.97;5088735;28;20448;-59
2023/10/28 01:27:53;;;;;;;0.80;0.40;;;;;;;-143.84;47.43;45068.13;5088484;28;20436;-59
2023/10/28 01:30:20;;;;;;;0.90;0.43;;;;;;;-143.84;47.99;45041.44;5088669;28;20454;-59
2023/10/28 01:32:47;;;;;;;0.90;0.63;;;;;;;-143.84;48.54;45049.06;5088815;28;20440;-60
2023/10/28 01:35:15;;;;;;;0.90;0.80;;;;;;;-143.84;48.90;45041.44;5079981;28;20495;-59
2023/10/28 01:37:42;;;;;;;0.80;0.60;;;;;;;-143.84;49.45;45041.44;5088546;28;20952;-60
2023/10/28 01:40:13;;;;;;;1.00;0.67;;;;;;;-143.84;49.95;45068.13;5088541;28;20435;-59
2023/10/28 01:42:41;;;;;;;0.80;0.43;;;;;;;-143.84;51.10;45066.22;5088266;28;20535;-59
2023/10/28 01:45:10;;;;;;;0.90;0.70;;;;;;;-143.84;51.10;45050.97;5088225;28;20470;-59
2023/10/28 01:47:37;;;;;;;1.10;0.80;;;;;;;-143.84;51.73;45066.22;5088765;28;21313;-59
2023/10/28 01:50:06;;;;;;;0.90;0.47;;;;;;;-143.84;51.60;45058.59;5088826;28;20444;-59
2023/10/28 01:52:34;;;;;;;0.90;0.50;;;;;;;-143.84;51.20;45028.13;5088549;28;20929;-60
2023/10/28 01:55:02;;;;;;;0.80;0.40;;;;;;;-143.84;50.73;45039.53;5088608;28;20993;-60
2023/10/28 01:57:30;;;;;;;0.83;0.47;;;;;;;-143.84;50.84;45071.91;5088576;28;20432;-60
2023/10/28 01:59:59;;;;;;;0.90;0.50;;;;;;;-143.84;50.97;45050.97;5088322;28;20443;-59
2023/10/28 02:02:27;;;;;;;0.90;0.53;;;;;;;-143.84;50.70;45043.34;5089503;28;20446;-60
2023/10/28 02:04:54;;;;;;;0.80;0.47;;;;;;;-143.84;50.13;45028.13;5092312;28;20444;-59
2023/10/28 02:07:21;;;;;;;0.90;0.60;;;;;;;-143.84;50.17;45075.72;5092661;28;20447;-59
2023/10/28 02:09:48;;;;;;;1.53;0.70;;;;;;;-143.84;49.97;45068.13;5092521;28;20821;-59
2023/10/28 02:12:15;;;;;;;0.90;0.70;;;;;;;-143.84;49.50;45071.91;5092375;28;20453;-59
2023/10/28 02:14:46;;;;;;;0.80;0.50;;;;;;;-143.84;49.55;45045.25;5092003;28;20484;-59
2023/10/28 02:17:13;;;;;;;0.80;0.40;;;;;;;-143.84;49.24;45047.16;5092364;28;20439;-59
2023/10/28 02:19:40;;;;;;;0.80;0.40;;;;;;;-143.84;48.88;45087.16;5092111;28;20446;-59
2023/10/28 02:22:09;;;;;;;0.80;0.50;;;;;;;-143.84;48.79;45050.97;5092288;28;20432;-59
2023/10/28 02:24:36;;;;;;;0.90;0.53;;;;;;;-143.84;48.70;45049.06;5092062;28;20451;-60
2023/10/28 02:27:04;;;;;;;3.33;0.40;;;;;;;-143.84;48.74;45064.31;5091919;28;21126;-59
2023/10/28 02:29:32;;;;;;;0.90;0.70;;;;;;;-143.84;48.81;45047.16;5091769;28;20444;-59
2023/10/28 02:32:00;;;;;;;0.90;0.50;;;;;;;-143.84;48.89;45066.22;5092279;28;20448;-59
2023/10/28 02:34:27;;;;;;;1.00;0.67;;;;;;;-143.84;49.07;45047.16;5091561;28;20491;-60
2023/10/28 02:36:54;;;;;;;1.00;0.50;;;;;;;-143.84;49.02;45052.88;5092154;28;20439;-59
2023/10/28 02:39:21;;;;;;;0.80;0.40;;;;;;;-143.84;49.07;45050.97;5091822;28;20435;-60
2023/10/28 02:41:49;;;;;;;0.80;0.30;;;;;;;-143.84;49.22;45047.16;5091610;28;20440;-59
2023/10/28 02:44:16;;;;;;;0.80;0.40;;;;;;;-143.84;49.38;45075.72;5101699;28;20446;-59
2023/10/28 02:46:43;;;;;;;0.80;0.37;;;;;;;-143.84;49.89;45060.50;5107307;28;20428;-59
2023/10/28 02:49:12;;;;;;;0.90;0.53;;;;;;;-143.84;50.05;45056.69;5099217;28;20439;-59
2023/10/28 02:51:39;;;;;;;1.00;0.70;;;;;;;-143.84;50.57;45054.78;5095983;28;20515;-59
2023/10/28 02:54:06;;;;;;;0.80;0.40;;;;;;;-143.84;50.48;45079.53;5110084;28;20917;-59
2023/10/28 02:56:33;;;;;;;1.43;0.80;;;;;;;-143.84;50.64;45068.13;5110516;28;20499;-59
2023/10/28 02:59:00;;;;;;;0.80;0.40;;;;;;;-143.84;50.79;45052.88;5111755;28;21060;-59
2023/10/28 03:01:28;;;;;;;3.33;1.60;;;;;;;-143.84;50.62;45041.44;5107426;28;20515;-57
2023/10/28 03:03:55;;;;;;;0.90;0.80;;;;;;;-143.84;50.65;45094.78;5112207;28;20431;-57
2023/10/28 03:06:23;;;;;;;0.80;0.40;;;;;;;-143.84;50.88;45075.72;5110699;28;20446;-57
2023/10/28 03:08:50;;;;;;;3.00;0.93;;;;;;;-143.84;50.75;45064.31;5109780;28;20488;-57
2023/10/28 03:11:17;;;;;;;0.90;0.50;;;;;;;-143.84;50.77;45085.25;5110499;28;20835;-57
2023/10/28 03:13:44;;;;;;;0.90;0.70;;;;;;;-143.84;50.84;45079.53;5108945;28;20854;-57
2023/10/28 03:16:11;;;;;;;1.10;1.00;;;;;;;-143.84;50.65;45068.13;5110025;28;20508;-57
2023/10/28 03:18:39;;;;;;;0.80;0.30;;;;;;;-143.84;50.67;45060.50;5110035;28;20435;-57
2023/10/28 03:21:06;;;;;;;0.80;0.30;;;;;;;-143.84;50.95;45066.22;5130731;27;20510;-58
2023/10/28 03:23:35;;;;;;;0.90;0.60;;;;;;;-143.84;50.59;45064.31;5132509;27;20483;-58
2023/10/28 03:26:06;;;;;;;0.80;0.50;;;;;;;-143.84;50.81;45050.97;5132526;27;20487;-57
2023/10/28 03:28:33;;;;;;;0.90;0.50;;;;;;;-143.84;51.04;45043.34;5132824;27;20874;-58
2023/10/28 03:31:00;;;;;;;0.90;0.57;;;;;;;-143.84;50.90;45064.31;5132884;27;20487;-58
2023/10/28 03:33:27;;;;;;;0.80;0.40;;;;;;;-143.84;50.70;45054.78;5132611;27;20552;-58
2023/10/28 03:35:57;;;;;;;0.90;0.50;;;;;;;-143.84;50.74;45052.88;5132542;27;20486;-58
2023/10/28 03:38:25;;;;;;;1.20;0.50;;;;;;;-143.84;50.93;45066.22;5132577;27;20446;-58
2023/10/28 03:40:53;;;;;;;0.80;0.53;;;;;;;-143.84;50.95;45068.13;5132369;27;20438;-58
2023/10/28 03:43:20;;;;;;;1.73;0.80;;;;;;;-143.84;51.20;45071.91;5132358;27;20446;-58
2023/10/28 03:45:48;;;;;;;0.80;0.40;;;;;;;-143.84;51.26;45087.16;5132184;27;20459;-58
2023/10/28 03:48:15;;;;;;;0.80;0.40;;;;;;;-143.84;51.15;45066.22;5132491;27;20438;-58
2023/10/28 03:50:42;;;;;;;0.80;0.40;;;;;;;-143.84;51.58;45035.75;5132125;27;20852;-58
2023/10/28 03:53:09;;;;;;;0.80;0.60;;;;;;;-143.84;51.46;45047.16;5132202;27;20441;-58
2023/10/28 03:55:36;;;;;;;0.80;0.30;;;;;;;-143.84;51.64;45068.13;5132088;27;20590;-58
2023/10/28 03:58:05;;;;;;;1.23;0.60;;;;;;;-143.84;51.28;45066.22;5132225;27;20491;-58
2023/10/28 04:00:33;;;;;;;0.80;0.30;;;;;;;-143.84;51.50;45068.13;5132651;27;20490;-58
2023/10/28 04:03:00;;;;;;;1.40;0.40;;;;;;;-143.84;51.32;45066.22;5132220;27;20651;-58
2023/10/28 04:05:27;;;;;;;0.80;0.40;;;;;;;-143.84;51.39;45083.34;5131977;27;20434;-58
2023/10/28 04:07:55;;;;;;;0.80;0.40;;;;;;;-143.84;51.85;45050.97;5132299;27;20882;-58
2023/10/28 04:10:22;;;;;;;0.90;0.63;;;;;;;-143.84;51.58;45098.56;5132495;27;20462;-58
2023/10/28 04:12:49;;;;;;;0.90;0.60;;;;;;;-143.84;51.74;45058.59;5132356;27;20433;-58
2023/10/28 04:15:18;;;;;;;0.90;0.50;;;;;;;-143.84;52.01;45049.06;5131922;27;20527;-58
2023/10/28 04:17:45;;;;;;;1.63;0.77;;;;;;;-143.84;52.53;45056.69;5131922;27;20434;-58
2023/10/28 04:20:12;;;;;;;0.80;0.40;;;;;;;-143.84;53.25;45066.22;5131450;27;20955;-58
2023/10/28 04:22:40;;;;;;;1.17;0.90;;;;;;;-143.84;53.51;45094.78;5131018;27;20512;-58
2023/10/28 04:25:08;;;;;;;1.03;0.70;;;;;;;-143.84;53.57;45083.34;5131781;27;21276;-58
2023/10/28 04:27:35;;;;;;;0.80;0.43;;;;;;;-143.84;53.95;45071.91;5129953;27;20502;-58
2023/10/28 04:30:04;;;;;;;1.10;0.50;;;;;;;-143.84;54.01;45075.72;5130669;27;20860;-58
2023/10/28 04:32:33;;;;;;;0.80;0.50;;;;;;;-143.84;53.80;45075.72;5131754;27;20623;-58
2023/10/28 04:35:00;;;;;;;0.80;0.47;;;;;;;-143.84;53.80;45058.59;5131393;27;20558;-58
2023/10/28 04:37:27;;;;;;;1.00;0.67;;;;;;;-143.84;53.72;45056.69;5131613;27;20457;-58
2023/10/28 04:39:54;;;;;;;0.87;0.50;;;;;;;-143.84;53.72;45075.72;5131308;27;20430;-58
2023/10/28 04:42:21;;;;;;;0.80;0.40;;;;;;;-143.84;53.47;45047.16;5131194;27;20434;-58
2023/10/28 04:44:48;;;;;;;0.80;0.40;;;;;;;-143.84;53.41;45060.50;5131269;27;20494;-58
2023/10/28 04:47:15;;;;;;;0.90;0.60;;;;;;;-143.84;53.27;45092.88;5131634;27;20924;-58
2023/10/28 04:49:44;;;;;;;0.80;0.40;;;;;;;-143.84;53.49;45056.69;5131570;27;20499;-58
2023/10/28 04:52:11;;;;;;;0.90;0.60;;;;;;;-143.84;53.34;45066.22;5131306;27;20499;-58
2023/10/28 04:54:38;;;;;;;0.80;0.40;;;;;;;-143.84;53.69;45066.22;5131268;27;20981;-58
2023/10/28 04:57:05;;;;;;;1.00;0.47;;;;;;;-143.84;53.85;45060.50;5130999;27;20449;-58
2023/10/28 04:59:33;;;;;;;0.80;0.40;;;;;;;-143.84;53.99;45049.06;5130956;27;20422;-58
2023/10/28 05:02:00;;;;;;;0.80;0.40;;;;;;;-143.84;53.91;45079.53;5131206;27;20617;-58
2023/10/28 05:04:27;;;;;;;1.30;0.83;;;;;;;-143.84;54.06;45085.25;5131012;27;20442;-58
2023/10/28 05:06:56;;;;;;;0.80;0.40;;;;;;;-143.84;53.89;45081.44;5130930;27;20457;-58
2023/10/28 05:09:23;;;;;;;0.80;0.40;;;;;;;-143.84;53.70;45045.25;5130729;27;20514;-58
2023/10/28 05:11:53;;;;;;;1.00;0.60;;;;;;;-143.84;53.91;45062.41;5131021;27;20497;-58
2023/10/28 05:14:20;;;;;;;0.80;0.40;;;;;;;-143.84;54.41;45089.06;5130654;27;20931;-58
2023/10/28 05:16:47;;;;;;;0.97;0.60;;;;;;;-143.84;54.32;45102.38;5130537;27;20446;-58
2023/10/28 05:19:15;;;;;;;1.00;0.47;;;;;;;-143.84;54.52;45066.22;5130617;27;20992;-58
2023/10/28 05:21:42;;;;;;;0.80;0.40;;;;;;;-143.84;54.36;45060.50;5130457;27;20434;-58
2023/10/28 05:24:10;;;;;;;0.80;0.40;;;;;;;-143.84;54.23;45050.97;5130471;27;20446;-58
2023/10/28 05:26:38;;;;;;;1.20;0.77;;;;;;;-143.84;54.32;45073.81;5130456;27;20447;-58
2023/10/28 05:29:06;;;;;;;1.37;1.00;;;;;;;-143.84;54.41;45085.25;5130717;27;20529;-58
2023/10/28 05:31:33;;;;;;;0.80;0.40;;;;;;;-143.84;54.45;45056.69;5130582;27;20792;-58
2023/10/28 05:34:01;;;;;;;0.90;0.43;;;;;;;-143.84;54.70;45064.31;5130189;27;20466;-58
2023/10/28 05:36:28;;;;;;;0.80;0.40;;;;;;;-143.84;54.33;45062.41;5130324;27;20477;-58
2023/10/28 05:38:55;;;;;;;0.97;0.53;;;;;;;-143.84;54.31;45071.91;5130064;27;20434;-58
2023/10/28 05:41:24;;;;;;;0.80;0.50;;;;;;;-143.84;54.63;45071.91;5130445;27;20771;-58
2023/10/28 05:43:51;;;;;;;0.80;0.50;;;;;;;-143.84;54.42;45073.81;5130352;28;20510;-58
2023/10/28 05:46:22;;;;;;;0.80;0.40;;;;;;;-143.84;54.66;45077.63;5130267;28;20483;-58
2023/10/28 05:48:50;;;;;;;0.90;0.70;;;;;;;-143.84;54.60;45077.63;5130340;28;20989;-58
2023/10/28 05:51:17;;;;;;;0.90;0.50;;;;;;;-143.84;54.88;45045.25;5130285;28;20509;-58
2023/10/28 05:53:44;;;;;;;0.90;0.60;;;;;;;-143.84;55.19;45062.41;5130811;27;20518;-58
2023/10/28 05:56:11;;;;;;;0.80;0.40;;;;;;;-143.84;54.72;45075.72;5130856;28;20565;-58
2023/10/28 05:58:40;;;;;;;0.80;0.40;;;;;;;-143.84;54.38;45062.41;5130958;28;20438;-58
2023/10/28 06:01:07;;;;;;;5.53;1.03;;;;;;;-143.84;53.88;45056.69;5130457;28;20503;-58
2023/10/28 06:03:34;;;;;;;0.80;0.40;;;;;;;-143.84;54.11;45054.78;5130957;28;20543;-58
2023/10/28 06:06:02;;;;;;;0.80;0.40;;;;;;;-143.84;53.58;45070.00;5130953;28;20509;-58
2023/10/28 06:08:29;;;;;;;0.80;0.30;;;;;;;-143.84;53.22;45073.81;5130834;28;20438;-58
2023/10/28 06:10:56;;;;;;;0.90;0.70;;;;;;;-143.84;53.34;45039.53;5130592;28;20430;-58
2023/10/28 06:13:24;;;;;;;0.80;0.40;;;;;;;-143.84;53.03;45062.41;5130606;28;20434;-58
2023/10/28 06:15:52;;;;;;;0.80;0.50;;;;;;;-143.84;53.38;45089.06;5130416;28;20481;-58
2023/10/28 06:18:19;;;;;;;0.90;0.50;;;;;;;-143.84;52.71;45054.78;5130659;28;20442;-58
2023/10/28 06:20:47;;;;;;;1.00;0.60;;;;;;;-143.84;51.71;45035.75;5130654;28;20436;-58
2023/10/28 06:23:15;;;;;;;0.80;0.40;;;;;;;-143.84;51.39;45052.88;5130290;28;20430;-58
2023/10/28 06:25:42;;;;;;;0.83;0.40;;;;;;;-143.84;50.69;45056.69;5130074;28;20442;-58
2023/10/28 06:28:10;;;;;;;1.20;0.70;;;;;;;-143.84;49.71;45054.78;5130289;28;20434;-58
2023/10/28 06:30:38;;;;;;;0.80;0.50;;;;;;;-143.84;49.23;45056.69;5122910;28;20435;-58
2023/10/28 06:33:06;;;;;;;2.50;0.60;;;;;;;-143.84;48.52;45049.06;5109306;28;20441;-58
2023/10/28 06:35:33;;;;;;;1.00;0.60;;;;;;;-143.84;49.11;45075.72;5099155;28;20614;-58
2023/10/28 06:38:00;;;;;;;1.27;0.93;;;;;;;-143.84;49.42;45041.44;5109593;28;20442;-58
2023/10/28 06:40:28;;;;;;;0.80;0.50;;;;;;;-143.84;48.95;45054.78;5109099;28;20443;-58
2023/10/28 06:42:56;;;;;;;1.13;0.50;;;;;;;-143.84;49.85;45070.00;5098828;28;20452;-58
2023/10/28 06:45:23;;;;;;;0.90;0.60;;;;;;;-143.84;49.69;45035.75;5088889;28;20576;-58
2023/10/28 06:47:51;;;;;;;0.90;0.70;;;;;;;-143.84;49.13;45050.97;5089574;28;20440;-58
2023/10/28 06:50:20;;;;;;;0.80;0.50;;;;;;;-143.84;48.47;45039.53;5092168;28;20824;-58
2023/10/28 06:52:48;;;;;;;1.00;0.70;;;;;;;-143.84;48.07;45028.13;5093354;28;20976;-58
2023/10/28 06:55:17;;;;;;;0.90;0.57;;;;;;;-143.84;47.95;45030.03;5093530;28;20471;-58
2023/10/28 06:57:45;;;;;;;1.87;0.67;;;;;;;-143.84;47.26;45052.88;5092729;28;20493;-58
2023/10/28 07:00:13;;;;;;;0.80;0.50;;;;;;;-143.84;46.09;45041.44;5092869;28;20456;-58
2023/10/28 07:02:41;;;;;;;0.80;0.50;;;;;;;-143.84;46.01;45041.44;5093387;28;20432;-58
2023/10/28 07:05:10;;;;;;;1.23;0.60;;;;;;;-143.84;45.48;45010.97;5092783;28;20447;-58
2023/10/28 07:07:39;;;;;;;0.80;0.40;;;;;;;-143.84;45.15;45033.84;5092686;28;20454;-58
2023/10/28 07:10:07;;;;;;;4.43;0.73;;;;;;;-143.84;44.58;45035.75;5093220;28;20543;-58
2023/10/28 07:12:35;;;;;;;0.80;0.40;;;;;;;-143.84;43.62;45024.31;5092718;28;20431;-58
2023/10/28 07:15:02;;;;;;;0.83;0.50;;;;;;;-143.84;43.94;45039.53;5092219;28;20444;-58
2023/10/28 07:17:29;;;;;;;0.80;0.40;;;;;;;-143.84;43.09;45054.78;5092755;28;20493;-58
2023/10/28 07:19:57;;;;;;;0.80;0.40;;;;;;;-143.84;43.28;45031.94;5092389;28;20910;-58
2023/10/28 07:22:25;;;;;;;0.80;0.40;;;;;;;-143.84;42.68;45007.19;5092149;28;20444;-58
2023/10/28 07:24:54;;;;;;;0.80;0.40;;;;;;;-143.84;41.89;45020.50;5092807;28;20428;-58
2023/10/28 07:27:21;;;;;;;0.80;0.37;;;;;;;-143.84;41.23;45022.41;5098265;28;20453;-58
2023/10/28 07:29:49;;;;;;;1.10;0.60;;;;;;;-143.84;40.77;45009.09;5097165;28;20467;-58
2023/10/28 07:32:16;;;;;;;0.90;0.40;;;;;;;-143.84;40.18;45005.28;5092266;28;20511;-58
2023/10/28 07:34:43;;;;;;;0.80;0.40;;;;;;;-143.84;39.20;45010.97;5094845;28;20475;-58
2023/10/28 07:37:11;;;;;;;0.80;0.40;;;;;;;-143.84;38.98;45014.78;5105177;28;20535;-58
2023/10/28 07:39:38;;;;;;;0.90;0.50;;;;;;;-143.84;38.40;44991.94;5110929;28;20960;-58
2023/10/28 07:42:07;;;;;;;0.80;0.40;;;;;;;-143.84;38.37;44982.41;5111741;28;20473;-58
2023/10/28 07:44:34;;;;;;;0.80;0.47;;;;;;;-143.84;38.78;44993.84;5111435;28;20435;-58
2023/10/28 07:47:01;;;;;;;0.80;0.40;;;;;;;-143.84;38.37;44984.31;5112590;28;20916;-58
2023/10/28 07:49:28;;;;;;;0.80;0.40;;;;;;;-143.84;38.16;44991.94;5112482;28;20439;-58
2023/10/28 07:51:55;;;;;;;0.80;0.40;;;;;;;-143.84;38.02;44982.41;5112103;28;20571;-58
2023/10/28 07:54:23;;;;;;;0.80;0.40;;;;;;;-143.84;37.54;44993.84;5112006;28;20448;-58
2023/10/28 07:56:51;;;;;;;0.80;0.40;;;;;;;-143.84;37.14;44999.56;5111984;28;20474;-58
2023/10/28 07:59:21;;;;;;;0.90;0.50;;;;;;;-143.84;37.18;44990.03;5110696;28;20486;-58
2023/10/28 08:01:48;;;;;;;0.90;0.40;;;;;;;-143.84;36.61;44997.66;5110568;28;20447;-57
2023/10/28 08:04:15;;;;;;;0.90;0.50;;;;;;;-143.84;36.19;44984.31;5110853;28;20967;-58
2023/10/28 08:06:43;;;;;;;3.00;0.60;;;;;;;-143.84;36.33;44988.13;5110874;28;20461;-58
2023/10/28 08:09:10;;;;;;;1.40;0.50;;;;;;;-143.84;36.45;44972.91;5102492;28;20485;-58
2023/10/28 08:11:37;;;;;;;0.90;0.47;;;;;;;-143.84;36.50;44991.94;5111246;28;20802;-58
2023/10/28 08:14:05;;;;;;;0.80;0.40;;;;;;;-143.84;35.67;44982.41;5111188;28;20435;-58
2023/10/28 08:16:34;;;;;;;0.90;0.60;;;;;;;-143.84;35.90;44995.75;5111500;28;20514;-58
2023/10/28 08:19:03;;;;;;;0.80;0.37;;;;;;;-143.84;36.70;44974.81;5111643;28;20446;-58
2023/10/28 08:21:30;;;;;;;0.90;0.50;;;;;;;-143.84;35.65;44976.72;5111787;28;20518;-58
2023/10/28 08:23:57;;;;;;;1.10;0.60;;;;;;;-143.84;35.73;44991.94;5111900;28;20956;-59
2023/10/28 08:26:26;;;;;;;0.90;0.50;;;;;;;-143.84;34.91;44971.00;5111627;28;20854;-58
2023/10/28 08:28:53;;;;;;;0.90;0.50;;;;;;;-143.84;34.31;44974.81;5111661;28;20437;-58
2023/10/28 08:31:21;;;;;;;0.97;0.47;;;;;;;-143.84;33.85;44972.91;5112084;28;20948;-58
2023/10/28 08:33:50;;;;;;;0.80;0.30;;;;;;;-143.84;33.27;44984.31;5111921;28;20512;-59
2023/10/28 08:36:18;;;;;;;0.90;0.60;;;;;;;-143.84;33.40;44978.63;5112036;28;21039;-58
2023/10/28 08:38:47;;;;;;;1.03;0.50;;;;;;;-143.84;32.57;44951.97;5098413;28;20448;-58
2023/10/28 08:41:17;;;;;;;0.80;0.50;;;;;;;-143.84;33.16;44951.97;5106544;28;20457;-58
2023/10/28 08:43:46;;;;;;;1.53;0.60;;;;;;;-143.84;32.71;44980.53;5111365;28;20446;-58
2023/10/28 08:46:14;;;;;;;0.80;0.40;;;;;;;-143.84;32.04;44969.09;5111200;28;20526;-58
2023/10/28 08:48:41;;;;;;;0.80;0.33;;;;;;;-143.84;32.43;44961.47;5111675;28;20447;-58
2023/10/28 08:51:11;;;;;;;0.90;0.60;;;;;;;-143.84;32.54;44972.91;5110865;28;20470;-58
2023/10/28 08:53:39;;;;;;;0.80;0.40;;;;;;;-143.84;32.27;44931.00;5110138;28;20439;-58
2023/10/28 08:56:07;;;;;;;0.90;0.40;;;;;;;-143.84;31.76;44950.06;5111738;28;20474;-58
2023/10/28 08:58:37;;;;;;;0.80;0.40;;;;;;;-143.84;31.38;44934.81;5111411;28;20864;-58
2023/10/28 09:01:05;;;;;;;0.90;0.40;;;;;;;-143.84;31.95;44944.34;5111160;28;20468;-58
2023/10/28 09:03:34;;;;;;;0.80;0.30;;;;;;;-143.84;32.72;44934.81;5110874;28;20509;-58
2023/10/28 09:06:04;;;;;;;0.80;0.40;;;;;;;-143.84;32.22;44923.41;5111378;28;20834;-58
2023/10/28 09:08:32;;;;;;;0.90;0.40;;;;;;;-143.84;32.33;44946.25;5111207;28;20912;-58
2023/10/28 09:11:01;;;;;;;0.80;0.40;;;;;;;-143.84;32.40;44955.75;5109719;28;20439;-58
2023/10/28 09:13:28;;;;;;;1.10;0.63;;;;;;;-143.84;31.69;44904.34;5109271;28;21151;-58
2023/10/28 09:15:55;;;;;;;1.23;0.50;;;;;;;-143.84;31.96;44931.00;5110578;28;20479;-58
2023/10/28 09:18:22;;;;;;;1.57;0.60;;;;;;;-143.84;32.25;44961.47;5110464;28;20446;-58
2023/10/28 09:20:49;;;;;;;0.80;0.40;;;;;;;-143.84;32.37;44940.53;5110784;28;20781;-58
2023/10/28 09:23:16;;;;;;;1.00;0.57;;;;;;;-143.84;32.55;44948.16;5110459;28;20431;-57
2023/10/28 09:25:45;;;;;;;0.80;0.40;;;;;;;-143.84;32.35;44988.13;5110837;28;20454;-58
2023/10/28 09:28:18;;;;;;;0.90;0.50;;;;;;;-143.84;32.52;44946.25;5110649;28;20485;-58
2023/10/28 09:30:46;;;;;;;0.90;0.50;;;;;;;-143.84;32.40;44938.63;5110856;28;20433;-58
2023/10/28 09:33:14;;;;;;;1.00;0.50;;;;;;;-143.84;32.23;44951.97;5110873;28;20454;-58
2023/10/28 09:35:43;;;;;;;0.90;0.67;;;;;;;-143.84;32.58;44957.66;5110293;28;20492;-58
2023/10/28 09:38:12;;;;;;;0.90;0.50;;;;;;;-143.84;32.63;44944.34;5110373;28;20451;-58
2023/10/28 09:40:39;;;;;;;0.80;0.40;;;;;;;-143.84;32.59;44921.50;5110142;28;20533;-58
2023/10/28 09:43:08;;;;;;;0.80;0.40;;;;;;;-143.84;32.60;44953.88;5119679;27;20449;-57
2023/10/28 09:45:36;;;;;;;0.80;0.30;;;;;;;-143.84;32.20;44950.06;5118503;28;20495;-57
2023/10/28 09:48:12;;;;;;;1.13;0.50;;;;;;;-143.84;32.68;44934.81;5110092;28;20518;-57
2023/10/28 09:50:48;;;;;;;1.40;0.60;;;;;;;-143.84;32.07;44915.78;5110514;28;20470;-57
2023/10/28 09:53:17;;;;;;;0.87;0.47;;;;;;;-143.84;32.85;44950.06;5110378;28;20931;-57
2023/10/28 09:55:45;;;;;;;1.20;0.50;;;;;;;-143.84;32.74;44931.00;5103856;28;20436;-57
2023/10/28 09:58:24;;;;;;;0.80;0.37;;;;;;;-143.84;32.18;44891.03;5108275;28;20451;-57
2023/10/28 10:00:54;;;;;;;0.80;0.40;;;;;;;-143.84;32.38;44944.34;5110484;28;20427;-57
2023/10/28 10:03:55;;;;;;;0.80;0.40;;;;;;;-143.84;32.71;44925.31;5110300;28;20435;-57
2023/10/28 10:06:22;;;;;;;0.80;0.40;;;;;;;-143.84;32.34;44940.53;5107444;28;20940;-58
2023/10/28 10:08:52;;;;;;;0.80;0.40;;;;;;;-143.84;32.26;44940.53;5129772;28;20446;-57
2023/10/28 10:11:22;;;;;;;0.90;0.60;;;;;;;-143.84;31.86;44900.53;5129039;28;20529;-54
2023/10/28 10:13:51;;;;;;;0.80;0.40;;;;;;;-143.84;32.51;44908.16;5124216;28;20796;-54
2023/10/28 10:16:32;;;;;;;0.80;0.40;;;;;;;-143.84;32.08;44917.69;5095409;28;20480;-54
2023/10/28 10:19:05;;;;;;;0.80;0.30;;;;;;;-143.84;32.12;44938.63;5090562;28;20574;-54
2023/10/28 10:21:33;;;;;;;0.90;0.43;;;;;;;-143.84;32.04;44904.34;5083305;28;20497;-54
2023/10/28 10:24:05;;;;;;;0.90;0.40;;;;;;;-143.84;31.95;44946.25;5117096;27;20446;-54
2023/10/28 10:26:34;;;;;;;1.00;0.50;;;;;;;-143.84;32.09;44927.19;5104191;27;20485;-54
2023/10/28 10:29:04;;;;;;;1.13;0.50;;;;;;;-143.84;31.65;44908.16;5094237;28;20525;-54
2023/10/28 10:31:33;;;;;;;1.20;0.40;;;;;;;-143.84;32.26;44911.97;5106258;28;20470;-54
2023/10/28 10:34:05;;;;;;;0.80;0.30;;;;;;;-143.84;32.60;44915.78;5108586;28;20524;-54
2023/10/28 10:36:35;;;;;;;0.80;0.40;;;;;;;-143.84;32.44;44919.59;5112051;28;20489;-54
2023/10/28 10:39:17;;;;;;;0.80;0.30;;;;;;;-143.84;32.15;44911.97;5112397;28;20447;-54
2023/10/28 10:41:48;;;;;;;0.90;0.60;;;;;;;-143.84;31.78;44927.19;5112662;28;20435;-54
2023/10/28 10:44:25;;;;;;;0.80;0.37;;;;;;;-143.84;32.48;44934.81;5111478;28;20445;-54
2023/10/28 10:46:52;;;;;;;1.00;0.60;;;;;;;-143.84;32.23;44929.09;5105527;28;20464;-54
2023/10/28 10:49:19;;;;;;;0.80;0.40;;;;;;;-143.84;32.40;44910.06;5092267;28;20452;-54
2023/10/28 10:51:47;;;;;;;0.80;0.40;;;;;;;-143.84;32.27;44927.19;5091587;28;20913;-54
2023/10/28 10:54:18;;;;;;;2.20;0.73;;;;;;;-143.84;32.62;44927.19;5091569;28;20451;-54
2023/10/28 10:56:45;;;;;;;0.80;0.40;;;;;;;-143.84;31.86;44950.06;5091726;28;20514;-54
2023/10/28 10:59:13;;;;;;;0.80;0.47;;;;;;;-143.84;33.05;44940.53;5091289;28;20443;-53
2023/10/28 11:01:42;;;;;;;0.80;0.40;;;;;;;-143.84;32.99;44931.00;5091613;28;21387;-53
2023/10/28 11:04:11;;;;;;;0.80;0.40;;;;;;;-143.84;34.01;44931.00;5091461;28;20440;-53
2023/10/28 11:06:38;;;;;;;0.80;0.40;;;;;;;-143.84;32.95;44950.06;5092649;28;20443;-54
2023/10/28 11:09:07;;;;;;;0.80;0.43;;;;;;;-143.84;32.77;44923.41;5131070;27;20917;-54
2023/10/28 11:11:35;;;;;;;0.90;0.40;;;;;;;-143.84;33.83;44927.19;5132273;27;20434;-54
2023/10/28 11:14:04;;;;;;;1.53;0.70;;;;;;;-143.84;33.28;44963.38;5132181;27;20480;-54
2023/10/28 11:16:32;;;;;;;1.10;0.60;;;;;;;-143.84;33.08;44942.44;5132041;27;20482;-54
2023/10/28 11:19:03;;;;;;;0.93;0.53;;;;;;;-143.84;33.40;44911.97;5131911;27;20947;-54
2023/10/28 11:21:31;;;;;;;0.80;0.40;;;;;;;-143.84;32.99;44965.28;5132012;27;20447;-54